Date,TemperatureHighF,TemperatureAvgF,TemperatureLowF,DewpointHighF,DewpointAvgF,DewpointLowF,HumidityHigh,HumidityAvg,HumidityLow,PressureMaxIn,PressureMinIn,WindSpeedMaxMPH,WindSpeedAvgMPH,GustSpeedMaxMPH,PrecipitationSumIn
2013-1-1,73,63,55,70,60,51,92,90,85,30.14,29.86,10,6,18,1.88
2013-1-2,55,52,49,51,47,45,90,85,80,30.24,30.10,9,5,15,0.11
2013-1-3,60,52,48,47,44,40,89,75,49,30.37,30.23,8,4,16,0.08
2013-1-4,55,52,47,44,42,38,79,69,52,30.47,30.29,7,4,13,0.00
2013-1-5,53,51,50,49,47,43,92,86,71,30.32,30.21,7,4,13,1.10
2013-1-6,64,55,49,50,49,45,93,81,57,30.28,30.19,9,4,15,1.02
2013-1-7,63,54,45,51,47,43,92,78,60,30.29,30.11,8,2,14,0.01
2013-1-8,68,63,56,66,60,50,93,88,78,30.11,29.94,15,6,25,0.31
2013-1-9,73,69,67,71,67,65,94,93,92,30.08,29.91,13,6,21,3.76
2013-1-10,72,68,63,70,66,59,94,93,91,30.07,29.92,8,3,15,2.26
2013-1-11,76,68,57,74,62,55,94,85,60,30.04,29.91,7,3,12,0.02
2013-1-12,80,77,75,75,74,73,94,91,83,29.95,29.79,13,7,25,0.02
2013-1-13,77,63,53,74,60,50,92,90,84,30.09,29.71,18,7,29,0.14
2013-1-14,53,49,45,50,45,42,91,88,84,30.15,30.01,10,7,21,0.09
2013-1-15,47,45,43,45,43,40,92,91,88,30.07,29.97,10,5,16,0.70
2013-1-16,51,44,42,44,41,39,92,87,74,30.22,30.04,9,5,15,0.33
2013-1-17,65,50,40,44,39,34,88,66,38,30.43,30.20,9,3,14,0.01
2013-1-18,63,52,43,44,41,33,89,70,32,30.52,30.35,6,1,12,0.00
2013-1-19,68,54,43,54,48,40,93,82,55,30.35,30.19,4,1,8,0.00
2013-1-20,71,58,47,59,52,45,93,82,52,30.26,30.11,4,1,7,0.01
2013-1-21,73,60,49,59,52,47,94,78,48,30.21,30.12,4,1,8,0.01
2013-1-22,72,58,46,56,51,43,92,78,50,30.32,30.19,4,1,9,0.01
2013-1-23,76,63,50,63,58,48,94,82,60,30.35,30.24,7,2,14,0.01
2013-1-24,76,68,61,68,63,59,93,85,71,30.30,30.17,6,2,13,0.01
2013-1-25,78,70,64,69,65,61,93,84,71,30.20,30.09,9,3,17,0.01
2013-1-26,79,70,63,71,65,61,94,84,63,30.20,30.12,8,2,12,0.01
2013-1-27,78,72,65,69,66,62,91,83,68,30.18,30.09,10,5,19,0.01
2013-1-28,79,74,71,72,70,68,92,87,79,30.16,30.02,11,6,18,0.01
2013-1-29,82,77,74,76,73,72,93,89,80,30.03,29.67,14,10,25,0.00
2013-1-30,76,62,48,73,46,33,90,57,31,30.19,29.65,17,8,28,0.02
2013-1-31,65,62,46,47,36,26,90,42,24,30.30,30.18,9,5,15,0.00
2013-2-1,71,61,56,53,51,45,89,72,40,30.28,30.26,6,1,11,0.00
2013-2-2,76,63,54,61,57,51,93,80,55,30.27,30.16,8,2,14,0.00
2013-2-3,73,62,54,61,52,34,94,75,25,30.29,30.20,7,3,11,0.02
2013-2-6,68,67,66,66,65,63,93,92,91,29.96,29.87,14,6,23,0.78
2013-2-7,75,67,63,67,64,60,93,89,74,29.95,29.83,13,2,21,0.63
2013-2-8,72,66,57,65,61,53,94,85,66,30.14,29.93,8,3,14,0.00
2013-2-9,73,65,55,68,60,52,90,86,77,30.15,29.93,11,6,19,0.00
2013-2-10,82,75,69,76,71,65,92,87,81,29.94,29.82,12,6,22,0.01
2013-2-11,71,67,61,68,64,56,92,89,82,30.00,29.91,9,4,17,0.23
2013-2-13,66,58,51,50,47,45,84,68,50,30.06,29.97,6,3,10,0.04
2013-2-14,67,54,45,50,46,42,91,77,48,30.14,30.04,4,1,9,0.04
2013-2-15,72,62,48,55,48,43,92,63,37,30.24,30.07,8,3,16,0.02
2013-2-16,63,54,45,48,35,26,83,53,27,30.37,30.22,11,4,20,0.01
2013-2-17,70,60,46,54,49,41,84,66,49,30.26,30.12,8,4,19,0.00
2013-2-18,75,70,63,69,63,54,89,78,71,30.12,29.87,15,8,28,0.25
2013-2-19,69,61,54,50,44,35,79,56,28,30.22,30.08,10,5,16,0.49
2013-2-20,65,59,53,55,46,37,77,63,51,30.18,29.92,13,7,22,0.00
2013-2-21,69,64,61,67,60,54,92,86,78,29.90,29.75,14,11,23,0.00
2013-2-22,71,66,63,65,57,53,92,74,60,29.93,29.84,7,5,13,0.01
2013-2-23,73,62,56,58,54,51,86,75,55,29.96,29.85,8,3,15,0.00
2013-2-24,72,62,51,65,56,47,91,80,60,29.94,29.67,10,3,15,0.04
2013-2-25,68,67,67,66,65,64,93,92,91,29.68,29.57,6,4,10,0.06
2013-3-5,73,62,57,42,38,35,53,42,26,30.24,30.09,8,4,16,0.00
2013-3-6,72,57,43,48,36,25,88,51,18,30.36,30.21,7,3,14,0.00
2013-3-7,69,58,49,52,45,35,89,65,29,30.31,30.19,7,2,11,0.00
2013-3-8,74,63,53,60,54,50,92,74,52,30.24,30.11,10,4,15,0.00
2013-3-13,74,65,58,49,42,35,69,46,24,30.35,30.30,2,0,6,0.00
2013-3-14,70,58,49,48,44,35,85,65,28,30.42,30.34,8,2,13,0.00
2013-3-17,81,77,74,72,71,69,92,83,70,29.81,29.74,10,7,18,0.00
2013-3-18,84,77,73,76,72,70,94,85,65,29.87,29.73,10,4,15,0.00
2013-3-19,81,72,60,71,59,50,92,64,47,29.98,29.87,12,4,17,0.00
2013-3-20,78,67,58,57,50,35,87,57,22,30.16,29.94,10,5,17,0.20
2013-3-21,73,65,56,62,51,43,80,62,35,30.03,29.75,13,5,21,0.08
2013-3-22,83,75,66,75,70,62,92,86,74,29.78,29.67,10,5,18,0.02
2013-3-23,78,75,73,76,73,71,94,93,89,29.75,29.56,5,2,10,0.07
2013-3-25,67,55,44,40,33,24,77,48,20,30.27,30.10,11,6,19,0.01
2013-3-26,64,54,41,36,30,25,75,44,23,30.44,30.29,8,3,16,0.00
2013-3-27,48,45,44,40,38,35,82,75,62,30.35,30.32,0,0,1,0.00